sensor_id;sensor_type;location;lat;lon;timestamp;pressure;altitude;pressure_sealevel;temperature;humidity
9889;BME280;4983;42.112;24.738;2024-03-07T00:02:08;99744.94;;;8.05;78.99
9889;BME280;4983;42.112;24.738;2024-03-07T00:04:33;99737.47;;;7.92;79.94
9889;BME280;4983;42.112;24.738;2024-03-07T00:07:02;99740.94;;;7.93;79.11
9889;BME280;4983;42.112;24.738;2024-03-07T00:09:31;99736.78;;;7.90;79.59
9889;BME280;4983;42.112;24.738;2024-03-07T00:11:56;99731.69;;;7.89;79.35
9889;BME280;4983;42.112;24.738;2024-03-07T00:14:22;99733.19;;;7.91;79.59
9889;BME280;4983;42.112;24.738;2024-03-07T00:16:58;99740.25;;;7.91;79.64
9889;BME280;4983;42.112;24.738;2024-03-07T00:19:24;99737.63;;;7.91;79.31
9889;BME280;4983;42.112;24.738;2024-03-07T00:21:58;99731.38;;;7.92;80.00
9889;BME280;4983;42.112;24.738;2024-03-07T00:24:24;99737.63;;;7.91;79.97
9889;BME280;4983;42.112;24.738;2024-03-07T00:26:50;99733.84;;;7.93;79.60
9889;BME280;4983;42.112;24.738;2024-03-07T00:29:19;99732.06;;;7.94;79.77
9889;BME280;4983;42.112;24.738;2024-03-07T00:31:45;99737.47;;;7.92;80.00
9889;BME280;4983;42.112;24.738;2024-03-07T00:34:12;99722.16;;;7.88;79.57
9889;BME280;4983;42.112;24.738;2024-03-07T00:36:40;99735.03;;;7.99;79.69
9889;BME280;4983;42.112;24.738;2024-03-07T00:39:05;99737.22;;;8.03;79.59
9889;BME280;4983;42.112;24.738;2024-03-07T00:41:33;99742.63;;;8.02;78.88
9889;BME280;4983;42.112;24.738;2024-03-07T00:43:59;99735.25;;;8.05;79.13
9889;BME280;4983;42.112;24.738;2024-03-07T00:46:24;99738.53;;;8.07;79.10
9889;BME280;4983;42.112;24.738;2024-03-07T00:48:50;99743.81;;;8.07;79.68
9889;BME280;4983;42.112;24.738;2024-03-07T00:51:15;99736.06;;;8.06;79.08
9889;BME280;4983;42.112;24.738;2024-03-07T00:53:41;99726.84;;;8.02;78.69
9889;BME280;4983;42.112;24.738;2024-03-07T00:56:06;99730.16;;;8.04;79.24
9889;BME280;4983;42.112;24.738;2024-03-07T00:58:31;99720.94;;;8.00;78.74
9889;BME280;4983;42.112;24.738;2024-03-07T01:00:57;99721.09;;;7.98;79.10
9889;BME280;4983;42.112;24.738;2024-03-07T01:03:22;99726.84;;;8.02;79.43
9889;BME280;4983;42.112;24.738;2024-03-07T01:05:49;99722.03;;;7.97;78.52
9889;BME280;4983;42.112;24.738;2024-03-07T01:08:15;99725.78;;;7.87;78.63
9889;BME280;4983;42.112;24.738;2024-03-07T01:10:40;99725.09;;;7.85;78.35
9889;BME280;4983;42.112;24.738;2024-03-07T01:13:06;99708.63;;;7.75;77.93
9889;BME280;4983;42.112;24.738;2024-03-07T01:15:34;99725.19;;;7.75;78.18
9889;BME280;4983;42.112;24.738;2024-03-07T01:17:59;99721.19;;;7.63;78.93
9889;BME280;4983;42.112;24.738;2024-03-07T01:20:25;99726.28;;;7.65;78.72
9889;BME280;4983;42.112;24.738;2024-03-07T01:22:51;99724.09;;;7.60;78.80
9889;BME280;4983;42.112;24.738;2024-03-07T01:25:17;99723.56;;;7.57;78.31
9889;BME280;4983;42.112;24.738;2024-03-07T01:27:43;99710.38;;;7.49;78.94
9889;BME280;4983;42.112;24.738;2024-03-07T01:30:09;99729.81;;;7.56;78.30
9889;BME280;4983;42.112;24.738;2024-03-07T01:32:35;99727.19;;;7.56;78.83
9889;BME280;4983;42.112;24.738;2024-03-07T01:35:00;99724.84;;;7.53;78.13
9889;BME280;4983;42.112;24.738;2024-03-07T01:37:26;99723.56;;;7.57;78.59
9889;BME280;4983;42.112;24.738;2024-03-07T01:39:52;99720.28;;;7.55;78.70
9889;BME280;4983;42.112;24.738;2024-03-07T01:42:17;99725.84;;;7.52;77.96
9889;BME280;4983;42.112;24.738;2024-03-07T01:44:42;99731.09;;;7.52;78.35
9889;BME280;4983;42.112;24.738;2024-03-07T01:47:09;99736.66;;;7.49;78.70
9889;BME280;4983;42.112;24.738;2024-03-07T01:49:36;99732.31;;;7.40;78.00
9889;BME280;4983;42.112;24.738;2024-03-07T01:52:03;99717.84;;;7.36;77.76
9889;BME280;4983;42.112;24.738;2024-03-07T01:54:30;99730.66;;;7.39;78.21
9889;BME280;4983;42.112;24.738;2024-03-07T01:56:57;99727.88;;;7.40;78.10
9889;BME280;4983;42.112;24.738;2024-03-07T01:59:23;99733.66;;;7.44;78.86
9889;BME280;4983;42.112;24.738;2024-03-07T02:01:50;99729.69;;;7.40;78.06
9889;BME280;4983;42.112;24.738;2024-03-07T02:04:15;99722.63;;;7.40;78.31
9889;BME280;4983;42.112;24.738;2024-03-07T02:06:41;99725.41;;;7.39;78.20
9889;BME280;4983;42.112;24.738;2024-03-07T02:09:07;99719.50;;;7.37;77.86
9889;BME280;4983;42.112;24.738;2024-03-07T02:11:32;99718.34;;;7.39;77.46
9889;BME280;4983;42.112;24.738;2024-03-07T02:13:58;99719.09;;;7.32;78.25
9889;BME280;4983;42.112;24.738;2024-03-07T02:16:24;99720.84;;;7.41;77.88
9889;BME280;4983;42.112;24.738;2024-03-07T02:18:50;99720.69;;;7.42;78.15
9889;BME280;4983;42.112;24.738;2024-03-07T02:21:16;99725.78;;;7.44;77.77
9889;BME280;4983;42.112;24.738;2024-03-07T02:23:41;99728.41;;;7.44;78.41
9889;BME280;4983;42.112;24.738;2024-03-07T02:26:07;99716.31;;;7.33;78.91
9889;BME280;4983;42.112;24.738;2024-03-07T02:28:34;99719.84;;;7.42;77.74
9889;BME280;4983;42.112;24.738;2024-03-07T02:31:00;99725.94;;;7.42;77.75
9889;BME280;4983;42.112;24.738;2024-03-07T02:33:25;99722.63;;;7.40;78.77
9889;BME280;4983;42.112;24.738;2024-03-07T02:35:51;99705.91;;;7.41;77.88
9889;BME280;4983;42.112;24.738;2024-03-07T02:38:16;99703.59;;;7.21;78.28
9889;BME280;4983;42.112;24.738;2024-03-07T02:40:43;99720.38;;;7.28;78.85
9889;BME280;4983;42.112;24.738;2024-03-07T02:43:08;99716.13;;;7.27;77.90
9889;BME280;4983;42.112;24.738;2024-03-07T02:45:34;99718.75;;;7.27;78.11
9889;BME280;4983;42.112;24.738;2024-03-07T02:47:59;99716.25;;;7.25;78.43
9889;BME280;4983;42.112;24.738;2024-03-07T02:50:25;99718.88;;;7.25;78.71
9889;BME280;4983;42.112;24.738;2024-03-07T02:52:50;99717.75;;;7.28;78.43
9889;BME280;4983;42.112;24.738;2024-03-07T02:55:17;99713.50;;;7.27;78.16
9889;BME280;4983;42.112;24.738;2024-03-07T02:57:44;99714.47;;;7.26;78.71
9889;BME280;4983;42.112;24.738;2024-03-07T03:00:11;99721.50;;;7.25;78.70
9889;BME280;4983;42.112;24.738;2024-03-07T03:02:48;99714.09;;;7.21;78.68
9889;BME280;4983;42.112;24.738;2024-03-07T03:05:17;99708.53;;;7.24;77.38
9889;BME280;4983;42.112;24.738;2024-03-07T03:07:43;99719.72;;;7.26;77.93
9889;BME280;4983;42.112;24.738;2024-03-07T03:10:23;99720.03;;;7.23;76.75
9889;BME280;4983;42.112;24.738;2024-03-07T03:12:54;99711.78;;;7.18;77.37
9889;BME280;4983;42.112;24.738;2024-03-07T03:15:21;99713.72;;;7.16;77.40
9889;BME280;4983;42.112;24.738;2024-03-07T03:17:47;99719.41;;;7.11;77.98
9889;BME280;4983;42.112;24.738;2024-03-07T03:20:13;99710.75;;;7.11;78.06
9889;BME280;4983;42.112;24.738;2024-03-07T03:23:05;99718.63;;;7.11;76.44
9889;BME280;4983;42.112;24.738;2024-03-07T03:25:32;99717.09;;;7.08;77.30
9889;BME280;4983;42.112;24.738;2024-03-07T03:28:04;99717.22;;;7.07;78.29
9889;BME280;4983;42.112;24.738;2024-03-07T03:30:30;99722.72;;;7.13;76.64
9889;BME280;4983;42.112;24.738;2024-03-07T03:32:55;99716.50;;;7.14;76.81
9889;BME280;4983;42.112;24.738;2024-03-07T03:35:21;99714.16;;;7.11;77.08
9889;BME280;4983;42.112;24.738;2024-03-07T03:37:46;99701.81;;;7.04;77.29
9889;BME280;4983;42.112;24.738;2024-03-07T03:40:12;99725.88;;;7.17;76.41
9889;BME280;4983;42.112;24.738;2024-03-07T03:42:42;99727.22;;;7.21;77.21
9889;BME280;4983;42.112;24.738;2024-03-07T03:45:09;99725.94;;;7.25;76.54
9889;BME280;4983;42.112;24.738;2024-03-07T03:47:37;99722.41;;;7.34;76.65
9889;BME280;4983;42.112;24.738;2024-03-07T03:50:06;99726.03;;;7.33;76.54
9889;BME280;4983;42.112;24.738;2024-03-07T03:52:33;99733.13;;;7.40;76.66
9889;BME280;4983;42.112;24.738;2024-03-07T03:55:00;99723.16;;;7.44;75.94
9889;BME280;4983;42.112;24.738;2024-03-07T03:57:27;99724.94;;;7.43;75.76
9889;BME280;4983;42.112;24.738;2024-03-07T03:59:53;99712.66;;;7.44;75.43
9889;BME280;4983;42.112;24.738;2024-03-07T04:02:20;99728.91;;;7.47;76.43
9889;BME280;4983;42.112;24.738;2024-03-07T04:04:47;99721.88;;;7.48;74.61
9889;BME280;4983;42.112;24.738;2024-03-07T04:07:13;99724.59;;;7.38;75.31
9889;BME280;4983;42.112;24.738;2024-03-07T04:09:38;99720.63;;;7.34;76.68
9889;BME280;4983;42.112;24.738;2024-03-07T04:12:04;99724.75;;;7.37;75.71
9889;BME280;4983;42.112;24.738;2024-03-07T04:14:30;99729.31;;;7.35;76.70
9889;BME280;4983;42.112;24.738;2024-03-07T04:16:58;99730.97;;;7.36;76.06
9889;BME280;4983;42.112;24.738;2024-03-07T04:19:23;99723.09;;;7.36;75.53
9889;BME280;4983;42.112;24.738;2024-03-07T04:21:50;99722.25;;;7.35;75.86
9889;BME280;4983;42.112;24.738;2024-03-07T04:24:16;99727.38;;;7.37;75.33
9889;BME280;4983;42.112;24.738;2024-03-07T04:26:42;99730.97;;;7.36;76.44
9889;BME280;4983;42.112;24.738;2024-03-07T04:29:07;99733.13;;;7.40;76.40
9889;BME280;4983;42.112;24.738;2024-03-07T04:31:36;99726.69;;;7.35;76.38
9889;BME280;4983;42.112;24.738;2024-03-07T04:34:02;99732.41;;;7.30;76.77
9889;BME280;4983;42.112;24.738;2024-03-07T04:36:27;99722.72;;;7.31;76.63
9889;BME280;4983;42.112;24.738;2024-03-07T04:38:54;99728.25;;;7.28;76.51
9889;BME280;4983;42.112;24.738;2024-03-07T04:41:20;99727.16;;;7.30;77.27
9889;BME280;4983;42.112;24.738;2024-03-07T04:43:45;99710.66;;;7.20;76.92
9889;BME280;4983;42.112;24.738;2024-03-07T04:46:11;99734.19;;;7.30;76.04
9889;BME280;4983;42.112;24.738;2024-03-07T04:48:37;99729.94;;;7.29;75.83
9889;BME280;4983;42.112;24.738;2024-03-07T04:51:03;99729.94;;;7.29;76.23
9889;BME280;4983;42.112;24.738;2024-03-07T04:53:29;99733.81;;;7.25;76.06
9889;BME280;4983;42.112;24.738;2024-03-07T04:55:54;99734.72;;;7.33;77.18
9889;BME280;4983;42.112;24.738;2024-03-07T04:58:19;99727.56;;;7.43;76.54
9889;BME280;4983;42.112;24.738;2024-03-07T05:00:45;99736.66;;;7.49;77.31
9889;BME280;4983;42.112;24.738;2024-03-07T05:03:10;99725.84;;;7.52;76.91
9889;BME280;4983;42.112;24.738;2024-03-07T05:05:36;99738.63;;;7.47;76.29
9889;BME280;4983;42.112;24.738;2024-03-07T05:08:02;99741.84;;;7.41;76.74
9889;BME280;4983;42.112;24.738;2024-03-07T05:10:29;99745.97;;;7.43;78.14
9889;BME280;4983;42.112;24.738;2024-03-07T05:12:56;99751.91;;;7.45;77.72
9889;BME280;4983;42.112;24.738;2024-03-07T05:15:24;99754.38;;;7.47;77.55
9889;BME280;4983;42.112;24.738;2024-03-07T05:17:51;99754.53;;;7.45;78.08
9889;BME280;4983;42.112;24.738;2024-03-07T05:20:17;99750.56;;;7.41;77.99
9889;BME280;4983;42.112;24.738;2024-03-07T05:22:42;99743.63;;;7.40;78.02
9889;BME280;4983;42.112;24.738;2024-03-07T05:25:17;99749.78;;;7.49;80.15
9889;BME280;4983;42.112;24.738;2024-03-07T05:27:44;99754.00;;;7.59;78.78
9889;BME280;4983;42.112;24.738;2024-03-07T05:30:10;99757.31;;;7.87;82.22
9889;BME280;4983;42.112;24.738;2024-03-07T05:32:38;99753.81;;;8.04;80.20
9889;BME280;4983;42.112;24.738;2024-03-07T05:35:05;99754.84;;;8.11;77.41
9889;BME280;4983;42.112;24.738;2024-03-07T05:37:31;99758.78;;;8.07;76.29
9889;BME280;4983;42.112;24.738;2024-03-07T05:39:57;99763.53;;;8.11;76.78
9889;BME280;4983;42.112;24.738;2024-03-07T05:42:22;99761.75;;;8.12;76.87
9889;BME280;4983;42.112;24.738;2024-03-07T05:44:50;99768.16;;;8.09;76.44
9889;BME280;4983;42.112;24.738;2024-03-07T05:47:16;99757.94;;;8.06;77.53
9889;BME280;4983;42.112;24.738;2024-03-07T05:49:42;99778.84;;;8.16;77.10
9889;BME280;4983;42.112;24.738;2024-03-07T05:52:09;99790.28;;;8.24;77.34
9889;BME280;4983;42.112;24.738;2024-03-07T05:54:35;99786.53;;;8.27;76.05
9889;BME280;4983;42.112;24.738;2024-03-07T05:57:01;99789.59;;;8.22;75.82
9889;BME280;4983;42.112;24.738;2024-03-07T05:59:27;99788.91;;;8.20;75.48
9889;BME280;4983;42.112;24.738;2024-03-07T06:01:57;99786.44;;;8.19;75.98
9889;BME280;4983;42.112;24.738;2024-03-07T06:04:22;99794.19;;;8.20;76.78
9889;BME280;4983;42.112;24.738;2024-03-07T06:06:48;99801.00;;;8.31;76.53
9889;BME280;4983;42.112;24.738;2024-03-07T06:09:14;99801.06;;;8.39;77.76
9889;BME280;4983;42.112;24.738;2024-03-07T06:11:40;99808.69;;;8.50;76.18
9889;BME280;4983;42.112;24.738;2024-03-07T06:14:09;99812.81;;;8.52;75.20
9889;BME280;4983;42.112;24.738;2024-03-07T06:16:37;99811.00;;;8.53;75.72
9889;BME280;4983;42.112;24.738;2024-03-07T06:19:04;99814.16;;;8.56;74.64
9889;BME280;4983;42.112;24.738;2024-03-07T06:21:30;99819.25;;;8.58;75.12
9889;BME280;4983;42.112;24.738;2024-03-07T06:23:59;99804.47;;;8.57;75.67
9889;BME280;4983;42.112;24.738;2024-03-07T06:26:29;99801.53;;;8.68;75.22
9889;BME280;4983;42.112;24.738;2024-03-07T06:29:16;99809.44;;;8.68;75.74
9889;BME280;4983;42.112;24.738;2024-03-07T06:31:42;99807.78;;;8.67;75.87
9889;BME280;4983;42.112;24.738;2024-03-07T06:34:08;99809.47;;;8.76;75.68
9889;BME280;4983;42.112;24.738;2024-03-07T06:36:34;99804.53;;;8.81;75.67
9889;BME280;4983;42.112;24.738;2024-03-07T06:39:00;99803.91;;;8.87;75.01
9889;BME280;4983;42.112;24.738;2024-03-07T06:41:26;99803.72;;;8.80;74.84
9889;BME280;4983;42.112;24.738;2024-03-07T06:43:51;99804.38;;;8.82;75.46
9889;BME280;4983;42.112;24.738;2024-03-07T06:46:20;99808.50;;;8.85;75.54
9889;BME280;4983;42.112;24.738;2024-03-07T06:48:46;99804.44;;;8.90;75.42
9889;BME280;4983;42.112;24.738;2024-03-07T06:51:11;99797.34;;;8.91;75.96
9889;BME280;4983;42.112;24.738;2024-03-07T06:53:37;99800.28;;;8.88;74.75
9889;BME280;4983;42.112;24.738;2024-03-07T06:56:03;99802.25;;;8.78;75.42
9889;BME280;4983;42.112;24.738;2024-03-07T06:58:28;99802.44;;;8.84;75.76
9889;BME280;4983;42.112;24.738;2024-03-07T07:00:54;99806.56;;;8.87;76.65
9889;BME280;4983;42.112;24.738;2024-03-07T07:03:22;99804.19;;;8.76;76.53
9889;BME280;4983;42.112;24.738;2024-03-07T07:05:49;99806.31;;;8.72;77.01
9889;BME280;4983;42.112;24.738;2024-03-07T07:08:15;99802.19;;;8.70;76.34
9889;BME280;4983;42.112;24.738;2024-03-07T07:10:41;99813.97;;;8.83;76.53
9889;BME280;4983;42.112;24.738;2024-03-07T07:13:08;99804.06;;;8.85;76.98
9889;BME280;4983;42.112;24.738;2024-03-07T07:15:33;99805.22;;;8.83;77.07
9889;BME280;4983;42.112;24.738;2024-03-07T07:17:59;99799.13;;;8.82;76.67
9889;BME280;4983;42.112;24.738;2024-03-07T07:20:27;99803.75;;;8.88;77.36
9889;BME280;4983;42.112;24.738;2024-03-07T07:22:53;99809.19;;;8.95;76.64
9889;BME280;4983;42.112;24.738;2024-03-07T07:25:19;99818.78;;;8.96;77.21
9889;BME280;4983;42.112;24.738;2024-03-07T07:27:48;99813.66;;;8.94;76.76
9889;BME280;4983;42.112;24.738;2024-03-07T07:30:19;99812.50;;;8.97;77.00
9889;BME280;4983;42.112;24.738;2024-03-07T07:32:45;99825.16;;;8.93;76.45
9889;BME280;4983;42.112;24.738;2024-03-07T07:35:12;99826.28;;;8.83;76.56
9889;BME280;4983;42.112;24.738;2024-03-07T07:37:42;99832.63;;;8.72;77.13
9889;BME280;4983;42.112;24.738;2024-03-07T07:40:09;99827.97;;;8.58;76.75
9889;BME280;4983;42.112;24.738;2024-03-07T07:42:38;99832.25;;;8.59;78.03
9889;BME280;4983;42.112;24.738;2024-03-07T07:45:11;99834.44;;;8.64;76.86
9889;BME280;4983;42.112;24.738;2024-03-07T07:47:41;99835.38;;;8.63;75.96
9889;BME280;4983;42.112;24.738;2024-03-07T07:50:20;99834.09;;;8.67;76.21
9889;BME280;4983;42.112;24.738;2024-03-07T07:52:58;99831.44;;;8.59;76.21
9889;BME280;4983;42.112;24.738;2024-03-07T07:55:25;99845.72;;;8.56;76.40
9889;BME280;4983;42.112;24.738;2024-03-07T07:57:52;99845.72;;;8.56;76.21
9889;BME280;4983;42.112;24.738;2024-03-07T08:00:20;99848.84;;;8.60;76.01
9889;BME280;4983;42.112;24.738;2024-03-07T08:02:59;99848.19;;;8.58;76.51
9889;BME280;4983;42.112;24.738;2024-03-07T08:05:26;99842.16;;;8.65;76.46
9889;BME280;4983;42.112;24.738;2024-03-07T08:07:54;99842.34;;;8.72;76.16
9889;BME280;4983;42.112;24.738;2024-03-07T08:10:20;99847.78;;;8.70;76.12
9889;BME280;4983;42.112;24.738;2024-03-07T08:12:48;99853.22;;;8.77;75.30
9889;BME280;4983;42.112;24.738;2024-03-07T08:15:14;99846.63;;;8.73;75.18
9889;BME280;4983;42.112;24.738;2024-03-07T08:17:41;99853.22;;;8.77;75.92
9889;BME280;4983;42.112;24.738;2024-03-07T08:20:13;99853.75;;;8.80;75.84
9889;BME280;4983;42.112;24.738;2024-03-07T08:22:40;99858.22;;;8.88;76.00
9889;BME280;4983;42.112;24.738;2024-03-07T08:25:08;99860.56;;;8.99;75.83
9889;BME280;4983;42.112;24.738;2024-03-07T08:27:38;99861.56;;;9.06;75.01
9889;BME280;4983;42.112;24.738;2024-03-07T08:30:05;99866.91;;;9.14;74.67
9889;BME280;4983;42.112;24.738;2024-03-07T08:32:36;99863.28;;;9.15;73.89
9889;BME280;4983;42.112;24.738;2024-03-07T08:35:05;99873.81;;;9.15;73.84
9889;BME280;4983;42.112;24.738;2024-03-07T08:37:44;99865.56;;;9.10;72.55
9889;BME280;4983;42.112;24.738;2024-03-07T08:40:10;99876.09;;;9.10;72.83
9889;BME280;4983;42.112;24.738;2024-03-07T08:42:38;99873.97;;;9.13;72.94
9889;BME280;4983;42.112;24.738;2024-03-07T08:45:05;99877.28;;;9.15;73.69
9889;BME280;4983;42.112;24.738;2024-03-07T08:47:31;99874.81;;;9.22;73.52
9889;BME280;4983;42.112;24.738;2024-03-07T08:49:58;99868.22;;;9.10;72.56
9889;BME280;4983;42.112;24.738;2024-03-07T08:52:24;99880.72;;;9.16;74.25
9889;BME280;4983;42.112;24.738;2024-03-07T08:54:49;99880.59;;;9.25;73.90
9889;BME280;4983;42.112;24.738;2024-03-07T08:57:14;99886.38;;;9.29;73.29
9889;BME280;4983;42.112;24.738;2024-03-07T08:59:42;99877.31;;;9.23;73.57
9889;BME280;4983;42.112;24.738;2024-03-07T09:02:09;99874.19;;;9.28;73.12
9889;BME280;4983;42.112;24.738;2024-03-07T09:04:35;99881.72;;;9.23;73.71
9889;BME280;4983;42.112;24.738;2024-03-07T09:07:01;99885.66;;;9.19;73.50
9889;BME280;4983;42.112;24.738;2024-03-07T09:09:27;99884.66;;;9.12;73.19
9889;BME280;4983;42.112;24.738;2024-03-07T09:11:52;99892.53;;;9.04;74.22
9889;BME280;4983;42.112;24.738;2024-03-07T09:14:17;99883.31;;;9.00;74.60
9889;BME280;4983;42.112;24.738;2024-03-07T09:16:43;99891.56;;;9.13;74.57
9889;BME280;4983;42.112;24.738;2024-03-07T09:19:09;99900.34;;;9.21;73.43
9889;BME280;4983;42.112;24.738;2024-03-07T09:21:39;99898.88;;;9.27;73.45
9889;BME280;4983;42.112;24.738;2024-03-07T09:24:05;99890.00;;;9.28;72.95
9889;BME280;4983;42.112;24.738;2024-03-07T09:26:32;99897.41;;;9.32;73.56
9889;BME280;4983;42.112;24.738;2024-03-07T09:28:59;99888.88;;;9.39;74.32
9889;BME280;4983;42.112;24.738;2024-03-07T09:31:26;99885.41;;;9.38;73.17
9889;BME280;4983;42.112;24.738;2024-03-07T09:33:51;99893.66;;;9.43;72.81
9889;BME280;4983;42.112;24.738;2024-03-07T09:36:19;99900.41;;;9.38;72.56
9889;BME280;4983;42.112;24.738;2024-03-07T09:38:44;99904.84;;;9.45;71.65
9889;BME280;4983;42.112;24.738;2024-03-07T09:41:10;99904.66;;;9.31;72.22
9889;BME280;4983;42.112;24.738;2024-03-07T09:43:36;99906.41;;;9.14;72.29
9889;BME280;4983;42.112;24.738;2024-03-07T09:46:05;99914.53;;;8.95;73.66
9889;BME280;4983;42.112;24.738;2024-03-07T09:48:31;99923.72;;;8.91;74.42
9889;BME280;4983;42.112;24.738;2024-03-07T09:50:58;99919.03;;;8.77;74.99
9889;BME280;4983;42.112;24.738;2024-03-07T09:53:25;99923.13;;;8.71;74.85
9889;BME280;4983;42.112;24.738;2024-03-07T09:55:52;99925.72;;;8.63;75.20
9889;BME280;4983;42.112;24.738;2024-03-07T09:58:19;99926.84;;;8.61;76.08
9889;BME280;4983;42.112;24.738;2024-03-07T10:00:46;99927.19;;;8.66;75.66
9889;BME280;4983;42.112;24.738;2024-03-07T10:03:17;99923.63;;;8.49;76.33
9889;BME280;4983;42.112;24.738;2024-03-07T10:05:45;99929.59;;;8.51;76.12
9889;BME280;4983;42.112;24.738;2024-03-07T10:08:11;99930.34;;;8.44;75.90
9889;BME280;4983;42.112;24.738;2024-03-07T10:10:38;99919.06;;;8.34;76.90
9889;BME280;4983;42.112;24.738;2024-03-07T10:13:03;99929.38;;;8.27;76.44
9889;BME280;4983;42.112;24.738;2024-03-07T10:15:31;99912.41;;;8.22;77.07
9889;BME280;4983;42.112;24.738;2024-03-07T10:17:58;99921.81;;;8.24;77.28
9889;BME280;4983;42.112;24.738;2024-03-07T10:20:25;99916.53;;;8.24;76.44
9889;BME280;4983;42.112;24.738;2024-03-07T10:22:50;99924.94;;;8.28;76.63
9889;BME280;4983;42.112;24.738;2024-03-07T10:25:20;99927.63;;;8.18;77.02
9889;BME280;4983;42.112;24.738;2024-03-07T10:27:53;99929.84;;;8.05;77.01
9889;BME280;4983;42.112;24.738;2024-03-07T10:30:19;99934.84;;;7.99;78.28
9889;BME280;4983;42.112;24.738;2024-03-07T10:32:52;99935.69;;;7.99;78.65
9889;BME280;4983;42.112;24.738;2024-03-07T10:35:21;99931.84;;;7.94;78.22
9889;BME280;4983;42.112;24.738;2024-03-07T10:37:48;99924.69;;;7.86;79.13
9889;BME280;4983;42.112;24.738;2024-03-07T10:40:13;99932.97;;;7.91;79.70
9889;BME280;4983;42.112;24.738;2024-03-07T10:42:46;99932.97;;;8.09;79.14
9889;BME280;4983;42.112;24.738;2024-03-07T10:45:20;99934.94;;;8.07;79.02
9889;BME280;4983;42.112;24.738;2024-03-07T10:47:53;99936.66;;;8.16;79.36
9889;BME280;4983;42.112;24.738;2024-03-07T10:59:18;99927.06;;;8.24;78.51
9889;BME280;4983;42.112;24.738;2024-03-07T11:01:59;99927.22;;;8.23;79.70
9889;BME280;4983;42.112;24.738;2024-03-07T11:04:32;99921.34;;;8.29;80.29
9889;BME280;4983;42.112;24.738;2024-03-07T11:06:59;99914.94;;;8.31;79.83
9889;BME280;4983;42.112;24.738;2024-03-07T11:09:26;99915.84;;;8.40;79.67
9889;BME280;4983;42.112;24.738;2024-03-07T11:11:59;99913.09;;;8.49;79.61
9889;BME280;4983;42.112;24.738;2024-03-07T11:14:26;99910.31;;;8.51;79.69
9889;BME280;4983;42.112;24.738;2024-03-07T11:16:52;99899.81;;;8.51;78.85
9889;BME280;4983;42.112;24.738;2024-03-07T11:19:25;99907.75;;;8.59;79.14
9889;BME280;4983;42.112;24.738;2024-03-07T11:21:54;99907.13;;;8.65;79.50
9889;BME280;4983;42.112;24.738;2024-03-07T11:24:30;99909.47;;;8.68;78.38
9889;BME280;4983;42.112;24.738;2024-03-07T11:26:58;99901.06;;;8.72;78.35
9889;BME280;4983;42.112;24.738;2024-03-07T11:32:14;99906.59;;;8.87;78.04
9889;BME280;4983;42.112;24.738;2024-03-07T11:34:41;99901.50;;;8.93;78.13
9889;BME280;4983;42.112;24.738;2024-03-07T11:37:10;99884.91;;;8.93;78.15
9889;BME280;4983;42.112;24.738;2024-03-07T11:39:43;99883.59;;;8.89;78.42
9889;BME280;4983;42.112;24.738;2024-03-07T11:42:09;99881.59;;;8.91;78.77
9889;BME280;4983;42.112;24.738;2024-03-07T11:44:45;99885.72;;;8.93;78.98
9889;BME280;4983;42.112;24.738;2024-03-07T11:47:12;99872.94;;;8.98;78.96
9889;BME280;4983;42.112;24.738;2024-03-07T11:49:38;99854.50;;;8.98;78.57
9889;BME280;4983;42.112;24.738;2024-03-07T11:52:04;99853.00;;;8.96;78.93
9889;BME280;4983;42.112;24.738;2024-03-07T11:54:37;99845.47;;;9.17;82.40
9889;BME280;4983;42.112;24.738;2024-03-07T11:57:07;99841.75;;;9.27;78.81
9889;BME280;4983;42.112;24.738;2024-03-07T11:59:40;99844.91;;;9.39;77.92
9889;BME280;4983;42.112;24.738;2024-03-07T12:02:05;99859.78;;;9.64;80.80
9889;BME280;4983;42.112;24.738;2024-03-07T12:04:31;99867.88;;;9.95;77.67
9889;BME280;4983;42.112;24.738;2024-03-07T12:07:00;99860.78;;;9.87;74.37
9889;BME280;4983;42.112;24.738;2024-03-07T12:09:25;99868.53;;;9.73;74.40
9889;BME280;4983;42.112;24.738;2024-03-07T12:11:51;99862.91;;;9.60;73.61
9889;BME280;4983;42.112;24.738;2024-03-07T12:14:20;99859.25;;;9.45;75.13
9889;BME280;4983;42.112;24.738;2024-03-07T12:16:46;99855.75;;;9.36;75.27
9889;BME280;4983;42.112;24.738;2024-03-07T12:19:12;99839.75;;;9.21;75.85
9889;BME280;4983;42.112;24.738;2024-03-07T12:21:38;99837.41;;;9.18;77.16
9889;BME280;4983;42.112;24.738;2024-03-07T12:24:14;99844.16;;;9.13;76.39
9889;BME280;4983;42.112;24.738;2024-03-07T12:26:40;99839.53;;;9.07;76.74
9889;BME280;4983;42.112;24.738;2024-03-07T12:29:10;99848.75;;;9.03;77.04
9889;BME280;4983;42.112;24.738;2024-03-07T12:31:42;99854.81;;;8.95;77.18
9889;BME280;4983;42.112;24.738;2024-03-07T12:34:10;99855.41;;;8.81;76.41
9889;BME280;4983;42.112;24.738;2024-03-07T12:36:36;99847.50;;;8.81;76.91
9889;BME280;4983;42.112;24.738;2024-03-07T12:39:23;99847.34;;;8.83;77.96
9889;BME280;4983;42.112;24.738;2024-03-07T12:41:56;99846.34;;;8.84;77.90
9889;BME280;4983;42.112;24.738;2024-03-07T12:44:22;99840.63;;;8.88;78.38
9889;BME280;4983;42.112;24.738;2024-03-07T12:46:54;99852.31;;;8.86;77.78
9889;BME280;4983;42.112;24.738;2024-03-07T12:49:24;99849.28;;;8.81;78.05
9889;BME280;4983;42.112;24.738;2024-03-07T12:51:56;99853.91;;;8.79;78.00
9889;BME280;4983;42.112;24.738;2024-03-07T12:54:24;99853.22;;;8.77;78.81
9889;BME280;4983;42.112;24.738;2024-03-07T12:56:50;99850.56;;;8.69;79.30
9889;BME280;4983;42.112;24.738;2024-03-07T12:59:16;99839.41;;;8.75;79.20
9889;BME280;4983;42.112;24.738;2024-03-07T13:01:42;99826.69;;;8.62;79.64
9889;BME280;4983;42.112;24.738;2024-03-07T13:04:11;99842.66;;;8.69;79.37
9889;BME280;4983;42.112;24.738;2024-03-07T13:06:36;99844.38;;;8.78;79.12
9889;BME280;4983;42.112;24.738;2024-03-07T13:09:02;99839.88;;;8.70;79.14
9889;BME280;4983;42.112;24.738;2024-03-07T13:11:28;99838.56;;;8.74;79.17
9889;BME280;4983;42.112;24.738;2024-03-07T13:13:57;99826.25;;;8.75;78.83
9889;BME280;4983;42.112;24.738;2024-03-07T13:16:23;99832.00;;;8.78;79.55
9889;BME280;4983;42.112;24.738;2024-03-07T13:18:56;99827.28;;;8.82;80.36
9889;BME280;4983;42.112;24.738;2024-03-07T13:21:21;99829.91;;;8.82;80.60
9889;BME280;4983;42.112;24.738;2024-03-07T13:23:47;99834.50;;;8.88;80.34
9889;BME280;4983;42.112;24.738;2024-03-07T13:26:13;99832.88;;;8.87;80.50
9889;BME280;4983;42.112;24.738;2024-03-07T13:28:43;99824.28;;;8.85;80.19
9889;BME280;4983;42.112;24.738;2024-03-07T13:31:10;99831.41;;;8.92;80.46
9889;BME280;4983;42.112;24.738;2024-03-07T13:33:37;99825.53;;;9.06;80.45
9889;BME280;4983;42.112;24.738;2024-03-07T13:36:03;99818.81;;;9.12;80.55